M/T Pazar — TCMC — position and weather

sailwx.info

Track history (hours):
 
Tides and Currents Weather Stations Pressure Air Temp Water Temp Dewpoint Dewpoint Depression Visibility Wind Speed Wind Dir Waves Ship Positions

M/T Pazar

Last reported at 2016-Apr-28 14:32 UTC. Time now 2016-Apr-29 13:56 UTC.
Position N 38°40' E 008°37'.

Length 85 m; draft 4.1 m.

Type: Tanker. MMSI: 271000251.

Date/timePositionNaut miles runAvg speedWind from/ knotsBaromVisibWave heightAir tempDewpointWater temp
2016-Apr-28 14:32N 38°40' E 008°37'9810.9
2016-Apr-28 05:33N 37°50' E 010°24'2210.7
2016-Apr-28 03:29N 37°38' E 010°48'1011.1
2016-Apr-28 02:33N 37°33' E 010°59'11311.1
2016-Apr-27 16:24N 36°39' E 013°04'4210.9
2016-Apr-27 12:31N 36°19' E 013°50'1010.8
2016-Apr-27 11:33N 36°14' E 014°01'1010.5
2016-Apr-27 10:33N 36°09' E 014°13'1110.7
2016-Apr-27 09:33N 36°03' E 014°23'3 3.0
2016-Apr-27 08:31N 35°60' E 014°24'0 0.0
2016-Apr-27 07:31N 35°60' E 014°24'0 0.0
2016-Apr-27 06:31N 35°60' E 014°24'1 1.2
2016-Apr-27 05:33N 35°60' E 014°26'1010.3
2016-Apr-27 04:32N 35°54' E 014°37'  
2016-Apr-20 17:33N 33°42' E 014°51'1110.7
2016-Apr-20 16:33N 33°52' E 014°55'  
Track history (hours):
 
Tides and Currents Weather Stations Pressure Air Temp Water Temp Dewpoint Dewpoint Depression Visibility Wind Speed Wind Dir Waves Ship Positions

M/T Pazar

Last reported at 2016-Apr-28 14:32 UTC. Time now 2016-Apr-29 13:56 UTC.
Position N 38°40' E 008°37'.

Length 85 m; draft 4.1 m.

Type: Tanker. MMSI: 271000251.

Date/timePositionNaut miles runAvg speedWind from/ knotsBaromVisibWave heightAir tempDewpointWater temp
2016-Apr-28 14:32N 38°40' E 008°37'9810.9
2016-Apr-28 05:33N 37°50' E 010°24'2210.7
2016-Apr-28 03:29N 37°38' E 010°48'1011.1
2016-Apr-28 02:33N 37°33' E 010°59'11311.1
2016-Apr-27 16:24N 36°39' E 013°04'4210.9
2016-Apr-27 12:31N 36°19' E 013°50'1010.8
2016-Apr-27 11:33N 36°14' E 014°01'1010.5
2016-Apr-27 10:33N 36°09' E 014°13'1110.7
2016-Apr-27 09:33N 36°03' E 014°23'3 3.0
2016-Apr-27 08:31N 35°60' E 014°24'0 0.0
2016-Apr-27 07:31N 35°60' E 014°24'0 0.0
2016-Apr-27 06:31N 35°60' E 014°24'1 1.2
2016-Apr-27 05:33N 35°60' E 014°26'1010.3
2016-Apr-27 04:32N 35°54' E 014°37'  
2016-Apr-20 17:33N 33°42' E 014°51'1110.7
2016-Apr-20 16:33N 33°52' E 014°55'  

Dump ship's entire track history